createdAt,value
2019-02-25T00:01:32.694Z,3.00
2019-02-25T00:04:22.321Z,3.20
2019-02-25T00:06:52.602Z,3.13
2019-02-25T00:09:41.910Z,3.20
2019-02-25T00:12:12.514Z,3.73
2019-02-25T00:14:42.718Z,3.10
2019-02-25T00:17:32.400Z,3.50
2019-02-25T00:20:02.593Z,3.30
2019-02-25T00:22:32.895Z,3.13
2019-02-25T00:25:03.558Z,3.60
2019-02-25T00:27:52.900Z,2.90
2019-02-25T00:30:43.965Z,3.00
2019-02-25T00:33:14.501Z,3.40
2019-02-25T00:36:04.051Z,2.70
2019-02-25T00:38:35.154Z,3.27
2019-02-25T00:41:29.844Z,3.40
2019-02-25T00:44:19.625Z,3.23
2019-02-25T00:47:09.356Z,3.23
2019-02-25T00:49:59.605Z,2.87
2019-02-25T00:52:49.913Z,3.53
2019-02-25T00:55:39.609Z,3.20
2019-02-25T00:58:31.915Z,3.47
2019-02-25T01:01:21.459Z,3.00
2019-02-25T01:04:10.877Z,2.90
2019-02-25T01:07:00.582Z,3.27
2019-02-25T01:09:51.762Z,3.40
2019-02-25T01:13:01.812Z,3.60
2019-02-25T01:15:32.252Z,5.40
2019-02-25T01:18:02.749Z,3.20
2019-02-25T01:20:33.871Z,3.50
2019-02-25T01:23:23.539Z,3.33
2019-02-25T01:26:13.506Z,3.00
2019-02-25T01:29:03.330Z,3.03
2019-02-25T01:31:52.840Z,3.50
2019-02-25T01:34:23.446Z,3.17
2019-02-25T01:37:12.865Z,3.30
2019-02-25T01:39:54.694Z,3.63
2019-02-25T01:42:25.288Z,3.23
2019-02-25T01:45:15.012Z,3.03
2019-02-25T01:47:45.972Z,2.87
2019-02-25T01:50:35.283Z,2.57
2019-02-25T01:53:45.718Z,2.83
2019-02-25T01:56:27.651Z,3.20
2019-02-25T01:58:57.824Z,3.13
2019-02-25T02:02:07.493Z,3.50
2019-02-25T02:04:57.042Z,3.17
2019-02-25T02:07:27.377Z,3.30
2019-02-25T02:10:01.079Z,3.17
2019-02-25T02:12:32.225Z,3.40
2019-02-25T02:15:24.367Z,3.47
2019-02-25T02:17:54.934Z,3.30
2019-02-25T02:20:44.247Z,3.50
2019-02-25T02:23:34.500Z,3.43
2019-02-25T02:26:44.286Z,3.17
2019-02-25T02:29:14.774Z,3.30
2019-02-25T02:32:04.492Z,3.37
2019-02-25T02:34:35.522Z,3.40
2019-02-25T02:37:05.808Z,3.30
2019-02-25T02:39:36.527Z,3.00
2019-02-25T02:42:27.446Z,3.30
2019-02-25T02:45:19.090Z,3.13
2019-02-25T02:48:19.112Z,3.33
2019-02-25T02:50:49.914Z,2.70
2019-02-25T02:53:20.964Z,2.93
2019-02-25T02:55:52.305Z,3.60
2019-02-25T02:58:41.808Z,3.47
2019-02-25T03:01:12.677Z,3.50
2019-02-25T03:04:02.534Z,2.90
2019-02-25T03:06:54.220Z,2.93
2019-02-25T03:09:25.153Z,3.30
2019-02-25T03:11:55.745Z,3.17
2019-02-25T03:14:45.769Z,3.83
2019-02-25T03:17:35.146Z,3.63
2019-02-25T03:20:24.632Z,4.03
2019-02-25T03:23:13.793Z,3.37
2019-02-25T03:26:03.375Z,3.20
2019-02-25T03:28:34.574Z,3.87
2019-02-25T03:31:24.254Z,3.03
2019-02-25T03:33:55.731Z,3.77
2019-02-25T03:36:47.137Z,3.83
2019-02-25T03:39:17.768Z,3.23
2019-02-25T03:41:48.695Z,3.33
2019-02-25T03:44:19.523Z,3.43
2019-02-25T03:46:49.790Z,3.20
2019-02-25T03:49:21.121Z,3.40
2019-02-25T03:51:51.230Z,3.40
2019-02-25T03:54:41.120Z,3.47
2019-02-25T03:57:30.594Z,4.17
2019-02-25T04:00:03.034Z,3.50
2019-02-25T04:02:34.887Z,3.47
2019-02-25T04:05:24.800Z,3.20
2019-02-25T04:08:14.075Z,3.67
2019-02-25T04:10:44.702Z,3.47
2019-02-25T04:13:34.578Z,3.07
2019-02-25T04:16:23.793Z,3.13
2019-02-25T04:19:13.252Z,3.47
2019-02-25T04:22:02.735Z,3.17
2019-02-25T04:24:52.744Z,3.33
2019-02-25T04:27:42.267Z,3.33
2019-02-25T04:30:14.449Z,3.10
2019-02-25T04:33:03.911Z,3.03
2019-02-25T04:35:34.539Z,3.67
2019-02-25T04:38:24.116Z,3.50
2019-02-25T04:41:13.442Z,3.70
2019-02-25T04:44:02.869Z,3.23
2019-02-25T04:46:33.060Z,3.43
2019-02-25T04:49:05.652Z,3.60
2019-02-25T04:51:55.573Z,3.70
2019-02-25T04:54:45.045Z,3.80
2019-02-25T04:57:15.983Z,3.60
2019-02-25T04:59:49.351Z,3.60
2019-02-25T05:02:21.065Z,3.50
2019-02-25T05:05:12.965Z,3.67
2019-02-25T05:07:43.067Z,3.47
2019-02-25T05:10:13.917Z,3.00
2019-02-25T05:13:04.847Z,3.40
2019-02-25T05:15:36.463Z,3.30
2019-02-25T05:18:06.603Z,4.27
2019-02-25T05:20:55.801Z,3.87
2019-02-25T05:23:25.950Z,3.40
2019-02-25T05:26:15.463Z,3.30
2019-02-25T05:29:04.910Z,3.93
2019-02-25T05:31:54.261Z,3.27
2019-02-25T05:34:24.643Z,3.80
2019-02-25T05:37:14.570Z,3.27
2019-02-25T05:39:44.720Z,4.87
2019-02-25T05:42:34.309Z,3.87
2019-02-25T05:45:23.477Z,3.47
2019-02-25T05:47:53.674Z,3.40
2019-02-25T05:50:23.891Z,4.07
2019-02-25T05:53:13.353Z,3.67
2019-02-25T05:55:43.574Z,3.67
2019-02-25T05:58:14.066Z,3.60
2019-02-25T06:00:49.769Z,4.23
2019-02-25T06:03:19.892Z,3.70
2019-02-25T06:06:09.461Z,4.17
2019-02-25T06:08:39.682Z,4.07
2019-02-25T06:11:28.900Z,4.33
2019-02-25T06:14:18.109Z,3.47
2019-02-25T06:17:09.310Z,3.60
2019-02-25T06:19:39.465Z,3.83
2019-02-25T06:22:09.939Z,3.83
2019-02-25T06:24:41.779Z,3.40
2019-02-25T06:27:12.187Z,3.53
2019-02-25T06:29:42.338Z,3.67
2019-02-25T06:32:31.960Z,4.50
2019-02-25T06:35:14.164Z,3.60
2019-02-25T06:37:46.078Z,3.40
2019-02-25T06:40:16.774Z,3.50
2019-02-25T06:42:46.879Z,3.33
2019-02-25T06:45:17.975Z,3.80
2019-02-25T06:48:07.226Z,3.97
2019-02-25T06:50:37.395Z,3.67
2019-02-25T06:53:26.865Z,3.73
2019-02-25T06:55:57.006Z,3.90
2019-02-25T06:58:46.604Z,3.77
2019-02-25T07:01:17.108Z,4.53
2019-02-25T07:04:19.419Z,4.03
2019-02-25T07:07:08.488Z,4.37
2019-02-25T07:10:00.762Z,4.00
2019-02-25T07:13:09.249Z,4.97
2019-02-25T07:15:58.345Z,4.60
2019-02-25T07:18:39.348Z,4.27
2019-02-25T07:21:28.530Z,3.60
2019-02-25T07:24:20.808Z,3.73
2019-02-25T07:27:17.014Z,4.40
2019-02-25T07:30:25.827Z,3.90
2019-02-25T07:33:14.874Z,4.07
2019-02-25T07:36:18.252Z,3.63
2019-02-25T07:39:07.323Z,4.37
2019-02-25T07:41:56.378Z,3.83
2019-02-25T07:45:04.570Z,4.00
2019-02-25T07:47:49.301Z,4.47
2019-02-25T07:50:57.616Z,3.50
2019-02-25T07:54:06.831Z,3.83
2019-02-25T07:56:56.311Z,3.70
2019-02-25T07:59:45.341Z,3.47
2019-02-25T08:02:34.417Z,3.80
2019-02-25T08:05:41.829Z,3.60
2019-02-25T08:08:50.534Z,3.70
2019-02-25T08:11:39.697Z,3.80
2019-02-25T08:14:30.253Z,3.83
2019-02-25T08:17:19.397Z,3.40
2019-02-25T08:20:27.400Z,3.50
2019-02-25T08:23:35.495Z,3.43
2019-02-25T08:26:24.509Z,3.27
2019-02-25T08:29:28.914Z,3.73
2019-02-25T08:32:38.697Z,4.07
2019-02-25T08:35:51.027Z,4.50
2019-02-25T08:38:35.168Z,3.60
2019-02-25T08:41:29.235Z,4.03
2019-02-25T08:44:18.296Z,3.90
2019-02-25T08:47:10.405Z,4.30
2019-02-25T08:49:44.926Z,4.43
2019-02-25T08:52:35.884Z,4.07
2019-02-25T08:55:25.306Z,4.30
2019-02-25T08:57:55.507Z,4.13
2019-02-25T09:00:44.856Z,4.33
2019-02-25T09:03:15.064Z,4.00
2019-02-25T09:05:45.249Z,4.13
2019-02-25T09:08:34.571Z,3.97
2019-02-25T09:11:13.720Z,4.60
2019-02-25T09:13:36.995Z,4.23
2019-02-25T09:16:07.872Z,3.90
2019-02-25T09:18:38.059Z,4.70
2019-02-25T09:21:08.368Z,4.23
2019-02-25T09:23:57.534Z,3.83
2019-02-25T09:26:27.702Z,4.83
2019-02-25T09:28:58.006Z,4.60
2019-02-25T09:31:47.639Z,4.20
2019-02-25T09:34:17.903Z,4.37
2019-02-25T09:36:47.998Z,4.53
2019-02-25T09:39:19.572Z,4.37
2019-02-25T09:41:49.808Z,4.60
2019-02-25T09:44:39.377Z,4.33
2019-02-25T09:47:09.755Z,4.40
2019-02-25T09:49:39.932Z,4.93
2019-02-25T09:52:10.292Z,5.00
2019-02-25T09:54:40.727Z,4.87
2019-02-25T09:57:10.898Z,5.23
2019-02-25T10:00:00.134Z,5.43
2019-02-25T10:02:30.350Z,4.17
2019-02-25T10:05:19.518Z,4.40
2019-02-25T10:07:49.725Z,4.57
2019-02-25T10:10:19.895Z,4.93
2019-02-25T10:12:57.662Z,4.93
2019-02-25T10:15:27.843Z,4.63
2019-02-25T10:17:58.074Z,4.90
2019-02-25T10:20:28.609Z,4.80
2019-02-25T10:22:58.905Z,4.80
2019-02-25T10:25:29.165Z,5.17
2019-02-25T10:27:59.323Z,4.67
2019-02-25T10:30:29.424Z,5.33
2019-02-25T10:33:00.859Z,5.30
2019-02-25T10:35:32.543Z,5.83
2019-02-25T10:38:03.272Z,6.27
2019-02-25T10:40:33.399Z,5.80
2019-02-25T10:43:03.548Z,5.97
2019-02-25T10:45:35.258Z,5.77
2019-02-25T10:48:06.229Z,6.43
2019-02-25T10:50:38.440Z,6.17
2019-02-25T10:53:20.384Z,5.77
2019-02-25T10:56:12.275Z,5.63
2019-02-25T10:58:42.412Z,5.27
2019-02-25T11:01:16.920Z,5.40
2019-02-25T11:03:45.637Z,5.00
2019-02-25T11:06:37.567Z,5.40
2019-02-25T11:12:35.438Z,4.67
2019-02-25T11:15:07.386Z,4.10
2019-02-25T11:17:57.357Z,4.10
2019-02-25T11:20:29.157Z,4.07
2019-02-25T11:22:59.681Z,4.00
2019-02-25T11:25:30.282Z,4.17
2019-02-25T11:28:00.509Z,4.03
2019-02-25T11:30:30.786Z,4.07
2019-02-25T11:33:03.823Z,3.37
2019-02-25T11:35:34.320Z,3.57
2019-02-25T11:38:16.281Z,3.97
2019-02-25T11:40:46.419Z,3.53
2019-02-25T11:43:18.810Z,2.90
2019-02-25T11:45:48.870Z,2.90
2019-02-25T11:48:22.652Z,3.10
2019-02-25T11:50:53.286Z,3.10
2019-02-25T11:53:23.453Z,3.03
2019-02-25T11:55:53.740Z,3.47
2019-02-25T11:58:23.855Z,3.40
2019-02-25T12:00:55.401Z,2.73
2019-02-25T12:03:25.566Z,2.63
2019-02-25T12:06:14.715Z,2.37
2019-02-25T12:08:44.874Z,2.40
2019-02-25T12:11:15.077Z,2.60
2019-02-25T12:14:04.348Z,2.53
2019-02-25T12:16:34.504Z,2.57
2019-02-25T12:19:04.885Z,2.47
2019-02-25T12:21:35.281Z,2.87
2019-02-25T12:24:25.436Z,2.60
2019-02-25T12:26:55.625Z,2.43
2019-02-25T12:29:44.949Z,2.40
2019-02-25T12:32:15.073Z,2.50
2019-02-25T12:34:45.584Z,1.90
2019-02-25T12:37:16.142Z,2.00
2019-02-25T12:39:57.464Z,2.60
2019-02-25T12:42:39.766Z,2.30
2019-02-25T12:45:10.193Z,2.10
2019-02-25T12:47:40.611Z,1.83
2019-02-25T12:52:35.003Z,2.17
2019-02-25T12:55:24.193Z,2.43
2019-02-25T12:57:55.240Z,2.10
2019-02-25T13:00:25.546Z,2.20
2019-02-25T13:02:56.124Z,2.10
2019-02-25T13:05:29.308Z,2.23
2019-02-25T13:07:59.571Z,2.20
2019-02-25T13:10:29.721Z,1.67
2019-02-25T13:13:00.057Z,1.90
2019-02-25T13:15:49.555Z,1.97
2019-02-25T13:18:21.664Z,2.80
2019-02-25T13:20:53.938Z,2.20
2019-02-25T13:23:43.203Z,2.27
2019-02-25T13:26:13.433Z,4.70
2019-02-25T13:28:43.569Z,1.77
2019-02-25T13:31:32.815Z,2.13
2019-02-25T13:34:02.990Z,1.93
2019-02-25T13:36:33.165Z,1.60
2019-02-25T13:44:22.380Z,1.50
2019-02-25T13:47:04.242Z,1.53
2019-02-25T13:49:34.377Z,1.63
2019-02-25T13:52:47.277Z,1.40
2019-02-25T14:01:25.778Z,1.70
2019-02-25T14:03:55.944Z,1.73
2019-02-25T14:06:45.130Z,1.77
2019-02-25T14:09:53.162Z,1.60
2019-02-25T14:12:42.447Z,1.60
2019-02-25T14:15:31.859Z,1.80
2019-02-25T14:18:21.049Z,2.23
2019-02-25T14:20:51.165Z,1.80
2019-02-25T14:23:40.622Z,1.83
2019-02-25T14:26:29.808Z,1.33
2019-02-25T14:29:19.063Z,1.87
2019-02-25T14:31:51.080Z,1.50
2019-02-25T14:34:40.329Z,1.67
2019-02-25T14:37:29.783Z,1.43
2019-02-25T14:40:14.506Z,1.83
2019-02-25T14:42:54.698Z,1.70
2019-02-25T14:45:46.413Z,1.80
2019-02-25T14:48:35.339Z,2.17
2019-02-25T14:51:24.570Z,2.20
2019-02-25T14:54:13.740Z,1.60
2019-02-25T14:57:02.961Z,1.50
2019-02-25T14:59:52.986Z,1.87
2019-02-25T15:02:43.748Z,1.90
2019-02-25T15:05:34.333Z,1.57
2019-02-25T15:08:28.499Z,2.10
2019-02-25T15:11:01.908Z,1.67
2019-02-25T15:13:50.198Z,1.73
2019-02-25T15:16:21.542Z,1.30
2019-02-25T15:19:13.358Z,1.50
2019-02-25T15:22:06.484Z,1.33
2019-02-25T15:24:55.060Z,1.80
2019-02-25T15:27:27.688Z,1.53
2019-02-25T15:29:59.026Z,1.63
2019-02-25T15:32:31.468Z,1.40
2019-02-25T15:38:10.302Z,1.80
2019-02-25T15:41:04.453Z,1.50
2019-02-25T15:43:37.532Z,1.50
2019-02-25T15:46:28.854Z,1.70
2019-02-25T15:49:19.682Z,1.50
2019-02-25T15:52:14.645Z,1.80
2019-02-25T15:55:02.394Z,1.60
2019-02-25T15:57:37.723Z,1.83
2019-02-25T16:00:30.052Z,1.97
2019-02-25T16:03:22.085Z,1.40
2019-02-25T16:06:12.605Z,1.50
2019-02-25T16:09:04.781Z,1.57
2019-02-25T16:11:54.353Z,1.47
2019-02-25T16:14:47.182Z,1.23
2019-02-25T16:17:17.801Z,1.50
2019-02-25T16:19:53.472Z,1.67
2019-02-25T16:22:45.556Z,1.70
2019-02-25T16:25:34.788Z,1.43
2019-02-25T16:30:55.981Z,1.20
2019-02-25T16:33:28.181Z,1.53
2019-02-25T16:36:19.334Z,1.57
2019-02-25T16:39:10.125Z,1.63
2019-02-25T16:41:59.790Z,1.60
2019-02-25T16:44:49.577Z,1.87
2019-02-25T16:47:41.022Z,2.30
2019-02-25T16:50:14.234Z,1.90
2019-02-25T16:53:07.881Z,1.93
2019-02-25T16:56:11.858Z,1.50
2019-02-25T16:58:29.872Z,1.57
2019-02-25T17:01:21.098Z,1.60
2019-02-25T17:04:02.681Z,1.73
2019-02-25T17:06:36.969Z,1.70
2019-02-25T17:09:32.033Z,1.53
2019-02-25T17:12:23.313Z,1.80
2019-02-25T17:15:14.329Z,1.27
2019-02-25T17:18:03.978Z,2.40
2019-02-25T17:20:53.481Z,1.53
2019-02-25T17:23:42.698Z,1.80
2019-02-25T17:26:32.523Z,1.50
2019-02-25T17:29:05.028Z,2.20
2019-02-25T17:31:55.287Z,2.07
2019-02-25T17:34:45.482Z,1.50
2019-02-25T17:37:36.090Z,1.53
2019-02-25T17:40:25.820Z,1.93
2019-02-25T17:43:09.094Z,1.83
2019-02-25T17:45:50.796Z,1.83
2019-02-25T17:48:32.403Z,2.27
2019-02-25T17:51:13.898Z,1.30
2019-02-25T17:53:55.616Z,1.93
2019-02-25T17:56:37.391Z,2.10
2019-02-25T17:59:09.643Z,2.57
2019-02-25T18:01:41.667Z,2.27
2019-02-25T18:04:12.224Z,2.60
2019-02-25T18:07:01.527Z,2.00
2019-02-25T18:09:50.806Z,2.33
2019-02-25T18:12:41.483Z,2.40
2019-02-25T18:15:32.807Z,1.80
2019-02-25T18:18:24.385Z,1.90
2019-02-25T18:21:13.236Z,2.20
2019-02-25T18:24:02.837Z,2.33
2019-02-25T18:26:52.311Z,2.13
2019-02-25T18:29:44.057Z,2.20
2019-02-25T18:32:34.831Z,2.20
2019-02-25T18:35:23.956Z,2.07
2019-02-25T18:38:13.380Z,2.13
2019-02-25T18:41:04.645Z,2.40
2019-02-25T18:43:46.766Z,2.67
2019-02-25T18:46:19.002Z,2.93
2019-02-25T18:49:09.606Z,2.53
2019-02-25T18:51:40.230Z,2.70
2019-02-25T18:54:29.545Z,2.43
2019-02-25T18:57:01.220Z,3.00
2019-02-25T18:59:32.235Z,2.97
2019-02-25T19:02:03.013Z,3.27
2019-02-25T19:04:52.349Z,2.60
2019-02-25T19:07:23.555Z,3.00
2019-02-25T19:10:34.385Z,2.50
2019-02-25T19:13:05.303Z,2.87
2019-02-25T19:15:55.301Z,2.87
2019-02-25T19:18:47.245Z,2.30
2019-02-25T19:21:18.261Z,2.37
2019-02-25T19:23:48.741Z,2.17
2019-02-25T19:26:38.787Z,2.00
2019-02-25T19:29:10.045Z,2.17
2019-02-25T19:32:01.178Z,2.70
2019-02-25T19:34:32.330Z,1.80
2019-02-25T19:37:22.802Z,2.47
2019-02-25T19:40:14.943Z,2.67
2019-02-25T19:42:47.336Z,2.90
2019-02-25T19:45:17.835Z,4.20
2019-02-25T19:48:19.990Z,2.40
2019-02-25T19:50:50.493Z,2.20
2019-02-25T19:53:15.155Z,2.57
2019-02-25T19:56:10.414Z,2.30
2019-02-25T19:59:08.090Z,2.43
2019-02-25T20:01:39.595Z,9.60
2019-02-25T20:04:20.877Z,4.70
2019-02-25T20:07:13.273Z,2.87
2019-02-25T20:09:44.142Z,2.00
2019-02-25T20:12:22.572Z,2.20
2019-02-25T20:15:14.075Z,2.30
2019-02-25T20:17:48.348Z,2.42
2019-02-25T20:20:20.269Z,2.37
2019-02-25T20:22:54.674Z,2.27
2019-02-25T20:25:46.634Z,2.60
2019-02-25T20:28:18.663Z,2.80
2019-02-25T20:30:51.502Z,4.33
2019-02-25T20:33:23.773Z,4.50
2019-02-25T20:36:19.150Z,2.63
2019-02-25T20:39:09.273Z,2.50
2019-02-25T20:41:52.690Z,2.53
2019-02-25T20:44:28.334Z,2.53
2019-02-25T20:47:23.253Z,2.23
2019-02-25T20:50:15.452Z,2.50
2019-02-25T20:52:58.230Z,2.90
2019-02-25T20:55:48.207Z,2.50
2019-02-25T20:58:23.124Z,2.77
2019-02-25T21:01:16.105Z,4.13
2019-02-25T21:04:22.365Z,2.80
2019-02-25T21:06:57.475Z,2.83
2019-02-25T21:09:46.905Z,3.20
2019-02-25T21:12:20.185Z,3.23
2019-02-25T21:15:14.180Z,2.70
2019-02-25T21:17:46.417Z,3.20
2019-02-25T21:20:35.698Z,7.07
2019-02-25T21:23:08.511Z,3.50
2019-02-25T21:26:11.389Z,2.77
2019-02-25T21:28:42.891Z,2.60
2019-02-25T21:31:32.760Z,3.33
2019-02-25T21:34:03.337Z,3.03
2019-02-25T21:36:35.810Z,3.10
2019-02-25T21:39:10.043Z,2.90
2019-02-25T21:41:41.796Z,2.53
2019-02-25T21:44:26.407Z,3.17
2019-02-25T21:47:20.379Z,2.73
2019-02-25T21:50:33.537Z,2.63
2019-02-25T21:53:25.454Z,2.90
2019-02-25T21:56:02.437Z,3.10
2019-02-25T21:58:50.927Z,3.03
2019-02-25T22:01:21.693Z,3.40
2019-02-25T22:03:52.532Z,3.63
2019-02-25T22:06:26.723Z,3.33
2019-02-25T22:08:58.559Z,3.03
2019-02-25T22:11:31.640Z,3.00
2019-02-25T22:14:03.386Z,2.90
2019-02-25T22:16:33.710Z,3.07
2019-02-25T22:19:23.329Z,3.00
2019-02-25T22:22:12.587Z,3.10
2019-02-25T22:27:39.089Z,3.17
2019-02-25T22:30:12.215Z,3.00
2019-02-25T22:33:02.988Z,3.40
2019-02-25T22:35:52.901Z,3.43
2019-02-25T22:38:25.342Z,3.53
2019-02-25T22:40:58.090Z,3.43
2019-02-25T22:43:48.251Z,3.53
2019-02-25T22:46:19.370Z,3.47
2019-02-25T22:48:50.269Z,3.27
2019-02-25T22:51:22.108Z,3.50
2019-02-25T22:54:12.477Z,3.43
2019-02-25T22:56:47.201Z,3.47
2019-02-25T22:59:37.424Z,3.97
2019-02-25T23:02:47.465Z,3.87
2019-02-25T23:05:40.971Z,3.20
2019-02-25T23:08:12.981Z,3.70
2019-02-25T23:11:02.100Z,3.90
2019-02-25T23:13:54.852Z,3.60
2019-02-25T23:16:25.486Z,4.03
2019-02-25T23:18:55.768Z,3.50
2019-02-25T23:21:29.341Z,3.37
2019-02-25T23:24:01.324Z,3.60
2019-02-25T23:26:31.431Z,3.20
2019-02-25T23:29:27.949Z,3.97
2019-02-25T23:32:21.043Z,3.90
2019-02-25T23:34:55.364Z,3.63
2019-02-25T23:37:26.897Z,3.87
2019-02-25T23:40:00.078Z,3.70
2019-02-25T23:42:32.760Z,3.27
2019-02-25T23:45:02.304Z,3.20
2019-02-25T23:47:55.226Z,4.10
2019-02-25T23:50:27.362Z,3.60
2019-02-25T23:53:16.441Z,3.40
2019-02-25T23:55:47.818Z,3.57
2019-02-25T23:58:42.312Z,3.57
